Silica, Minnesota
Current Conditions -  °F | °C
As of 10:53 AM on Friday 28 Nov 2014 (Local Time) from KHIB Reporting Station
Light Snow Light Snow  
Wind Chill:   Ceiling: 1600
Heat Index: 12°   Visibility: 5mi
Dew Point:   Wind: 7mph
Humidity: 77%   Direction: 150°SSE
Pressure: 29.96"   Gusts: NA
Location:  47.4158°N, 93.0053°W
Report Text: KHIB 281653Z AUTO 15006KT 5SM -SN OVC016 M11/M14 A2996 RMK AO2 SLP178 P0000 T11111144
Loading
Personal Weather Stations






























Interactive Weather Map New forecast layout! Learn more

10-Day Weather Forecast

Advertisements
Track Severe Weather on mobile